SCCP weather

Public forecast

Using degrees Celsius for public forecast. Weather courtesy of forecast.io.

Closest aviation weather report (METAR) to Callipulli Airport

Closest report is Cañal Bajo Carlos - Hott Siebert Airport, 9.8 nm (18.1 km) W. Retrieved 2020/08/15 08:00 UTC (11 minutes ago):

SCJO 150800Z AUTO 30003KT CAVOK 02/01 Q1021

Closest aviation forecast (TAF) to Callipulli Airport

Forecast is more than 12 hours old.

Closest forecast is Cañal Bajo Carlos - Hott Siebert Airport, 9.8 nm (18.1 km) W. Retrieved 2020/08/14 12:33 UTC (20 hours ago):

TAF TAF COR SCJO 141122Z 1412/1424 VRB02KT 9999 SCT030 BKN040 BKN060 TN02/1412Z TX09/1418Z BECMG 1412/1414 32006KT TEMPO 1414/1418 32016KT -SHRA BKN023 BKN035 BECMG 1419/1421 9000 -SHRA SCT020 BKN035 BKN060